createdAt,value
2023-08-11T00:09:20.279Z,100728.91
2023-08-11T00:19:22.016Z,100726.84
2023-08-11T00:29:25.934Z,100733.63
2023-08-11T00:39:27.690Z,100722.97
2023-08-11T00:49:29.602Z,100722.88
2023-08-11T00:59:31.318Z,100725.81
2023-08-11T01:09:49.423Z,100734.13
2023-08-11T01:19:51.222Z,100735.66
2023-08-11T01:29:53.010Z,100729.59
2023-08-11T01:39:56.010Z,100724.91
2023-08-11T01:49:58.217Z,100737.50
2023-08-11T02:00:01.263Z,100737.19
2023-08-11T02:10:03.897Z,100742.41
2023-08-11T02:20:19.198Z,100742.50
2023-08-11T02:30:23.572Z,100738.44
2023-08-11T02:40:25.999Z,100741.19
2023-08-11T02:50:27.767Z,100737.78
2023-08-11T03:00:30.038Z,100748.28
2023-08-11T03:10:39.908Z,100755.28
2023-08-11T03:21:00.479Z,100746.81
2023-08-11T03:31:09.282Z,100762.50
2023-08-11T03:41:11.018Z,100765.97
2023-08-11T03:51:12.772Z,100776.56
2023-08-11T04:01:14.652Z,100769.50
2023-08-11T04:11:16.496Z,100771.16
2023-08-11T04:21:21.043Z,100791.75
2023-08-11T04:31:22.804Z,100804.34
2023-08-11T04:41:24.459Z,100802.31
2023-08-11T04:51:26.125Z,100810.03
2023-08-11T05:01:27.804Z,100827.78
2023-08-11T05:11:31.511Z,100829.94
2023-08-11T05:21:34.372Z,100847.50
2023-08-11T05:31:36.146Z,100851.03
2023-08-11T05:41:39.870Z,100845.13
2023-08-11T05:51:44.121Z,100848.34
2023-08-11T06:01:50.077Z,100846.84
2023-08-11T06:22:08.072Z,100850.84
2023-08-11T06:32:11.690Z,100861.47
2023-08-11T06:42:13.427Z,100870.63
2023-08-11T06:52:15.139Z,100876.63
2023-08-11T07:02:16.762Z,100883.59
2023-08-11T07:12:18.434Z,100872.88
2023-08-11T07:22:20.068Z,100879.28
2023-08-11T07:32:21.792Z,100880.97
2023-08-11T07:42:23.759Z,100879.44
2023-08-11T07:52:25.562Z,100884.34
2023-08-11T08:02:27.686Z,100887.22
2023-08-11T08:12:29.381Z,100898.59
2023-08-11T08:22:31.260Z,100899.75
2023-08-11T08:32:34.490Z,100896.69
2023-08-11T08:42:38.122Z,100894.13
2023-08-11T08:52:42.872Z,100889.03
2023-08-11T09:02:46.990Z,100896.69
2023-08-11T09:12:50.437Z,100885.31
2023-08-11T09:22:52.307Z,100883.84
2023-08-11T09:32:54.135Z,100889.56
2023-08-11T09:42:57.558Z,100894.34
2023-08-11T09:53:01.689Z,100896.38
2023-08-11T10:03:08.167Z,100885.91
2023-08-11T10:13:16.531Z,100893.66
2023-08-11T10:23:22.638Z,100871.50
2023-08-11T10:33:24.340Z,100875.59
2023-08-11T10:43:36.154Z,100876.63
2023-08-11T10:53:40.950Z,100859.13
2023-08-11T11:03:43.429Z,100849.94
2023-08-11T11:13:45.527Z,100855.03
2023-08-11T11:23:52.598Z,100855.38
2023-08-11T11:33:55.095Z,100848.34
2023-08-11T11:43:58.432Z,100864.84
2023-08-11T11:54:00.311Z,100857.75
2023-08-11T12:04:05.907Z,100847.59
2023-08-11T12:14:09.426Z,100853.09
2023-08-11T12:24:15.899Z,100841.53
2023-08-11T12:34:17.774Z,100834.47
2023-08-11T12:44:20.440Z,100846.06
2023-08-11T12:54:22.086Z,100851.56
2023-08-11T13:04:27.256Z,100850.84
2023-08-11T13:14:28.975Z,100841.69
2023-08-11T13:24:37.404Z,100843.28
2023-08-11T13:34:39.115Z,100849.63
2023-08-11T13:44:40.850Z,100835.13
2023-08-11T13:55:03.083Z,100835.69
2023-08-11T14:05:05.554Z,100835.19
2023-08-11T14:15:07.834Z,100841.91
2023-08-11T14:25:11.510Z,100824.84
2023-08-11T14:35:13.207Z,100829.47
2023-08-11T14:45:14.933Z,100825.31
2023-08-11T14:55:17.776Z,100819.44
2023-08-11T15:05:19.443Z,100828.84
2023-08-11T15:15:21.292Z,100834.75
2023-08-11T15:25:23.075Z,100824.16
2023-08-11T15:35:25.799Z,100835.22
2023-08-11T15:45:27.982Z,100829.06
2023-08-11T15:55:36.395Z,100828.34
2023-08-11T16:05:40.771Z,100833.41
2023-08-11T16:15:42.901Z,100833.34
2023-08-11T16:25:45.685Z,100834.81
2023-08-11T16:35:48.987Z,100828.03
2023-08-11T16:45:51.133Z,100829.69
2023-08-11T16:55:53.178Z,100833.78
2023-08-11T17:05:54.843Z,100831.75
2023-08-11T17:15:56.648Z,100835.75
2023-08-11T17:25:58.335Z,100840.03
2023-08-11T17:36:00.799Z,100846.69
2023-08-11T17:46:05.264Z,100847.53
2023-08-11T17:56:07.957Z,100857.44
2023-08-11T18:06:10.157Z,100864.53
2023-08-11T18:16:14.882Z,100863.22
2023-08-11T18:26:19.860Z,100879.00
2023-08-11T18:36:21.810Z,100875.44
2023-08-11T18:46:24.253Z,100894.94
2023-08-11T18:56:26.501Z,100894.97
2023-08-11T19:06:29.617Z,100899.31
2023-08-11T19:16:31.527Z,100906.31
2023-08-11T19:26:34.233Z,100900.72
2023-08-11T19:36:38.981Z,100892.75
2023-08-11T19:46:52.150Z,100909.03
2023-08-11T19:56:54.323Z,100904.47
2023-08-11T20:06:57.819Z,100906.06
2023-08-11T20:17:02.631Z,100906.69
2023-08-11T20:27:04.357Z,100906.94
2023-08-11T20:37:06.623Z,100913.03
2023-08-11T20:47:08.892Z,100904.16
2023-08-11T20:57:14.844Z,100909.84
2023-08-11T21:07:16.550Z,100910.91
2023-08-11T21:17:21.332Z,100901.50
2023-08-11T21:27:23.153Z,100902.28
2023-08-11T21:37:32.231Z,100904.72
2023-08-11T21:47:35.927Z,100906.31
2023-08-11T21:57:37.805Z,100908.31
2023-08-11T22:07:39.611Z,100911.34
2023-08-11T22:17:46.249Z,100902.66
2023-08-11T22:27:49.388Z,100904.88
2023-08-11T22:37:52.028Z,100907.59
2023-08-11T22:47:53.740Z,100898.84
2023-08-11T22:57:57.354Z,100893.47
2023-08-11T23:08:00.879Z,100897.41
2023-08-11T23:18:02.549Z,100904.78
2023-08-11T23:28:04.503Z,100906.88
2023-08-11T23:38:07.490Z,100907.81
2023-08-11T23:48:09.398Z,100900.31
2023-08-11T23:58:11.447Z,100897.00
